Terminal Aerodrome Forecast
Issued by NWS

Home | Current Version | Previous Version | Text Only | Print | Product List | Glossary On
Versions: 1 2 3 4 5 6 7 8 9 10 11 12 13 14 15
636
FTUS41 KAKQ 231745
TAFPHF
TAF
KPHF 231745Z 2318/2418 08004KT P6SM BKN035 OVC050
     FM232100 02007KT 4SM -SHRA BR BKN035 OVC050
     FM240300 04006KT P6SM VCSH OVC040
     FM240600 02006KT P6SM BKN045
     FM241200 03010KT P6SM BKN090=

USA.gov is the U.S. government's official web portal to all federal, state and local government web resources and services.